createdAt,value
2019-04-27T00:04:55.809Z,22.37
2019-04-27T00:10:05.175Z,23.17
2019-04-27T00:15:13.187Z,20.07
2019-04-27T00:20:37.275Z,19.43
2019-04-27T00:25:43.781Z,24.63
2019-04-27T00:30:49.166Z,25.70
2019-04-27T00:36:00.262Z,24.73
2019-04-27T00:41:11.121Z,31.63
2019-04-27T00:46:16.415Z,30.20
2019-04-27T00:51:23.042Z,27.43
2019-04-27T00:56:53.147Z,31.73
2019-04-27T01:02:26.503Z,28.83
2019-04-27T01:07:36.538Z,30.93
2019-04-27T01:12:42.919Z,27.00
2019-04-27T01:17:49.127Z,32.33
2019-04-27T01:22:54.438Z,26.63
2019-04-27T01:28:21.638Z,30.93
2019-04-27T01:33:30.324Z,29.37
2019-04-27T01:39:19.595Z,28.33
2019-04-27T01:44:24.936Z,29.57
2019-04-27T01:49:31.305Z,34.63
2019-04-27T01:54:54.483Z,31.87
2019-04-27T02:00:00.553Z,37.83
2019-04-27T02:05:23.883Z,35.20
2019-04-27T02:10:31.597Z,37.77
2019-04-27T02:15:39.567Z,34.87
2019-04-27T02:20:50.202Z,30.70
2019-04-27T02:25:56.277Z,29.03
2019-04-27T02:31:30.674Z,30.67
2019-04-27T02:36:35.733Z,30.67
2019-04-27T02:41:40.756Z,30.20
2019-04-27T02:46:55.775Z,36.77
2019-04-27T02:52:20.160Z,28.77
2019-04-27T02:57:26.399Z,35.87
2019-04-27T03:02:52.046Z,38.47
2019-04-27T03:07:59.387Z,38.27
2019-04-27T03:13:11.259Z,39.90
2019-04-27T03:18:35.635Z,29.47
2019-04-27T03:23:41.295Z,38.20
2019-04-27T03:28:46.431Z,39.47
2019-04-27T03:33:58.286Z,34.03
2019-04-27T03:39:00.105Z,34.00
2019-04-27T03:44:05.144Z,30.20
2019-04-27T03:49:27.317Z,31.10
2019-04-27T03:54:36.403Z,27.63
2019-04-27T03:59:59.728Z,29.00
2019-04-27T04:05:30.094Z,30.30
2019-04-27T04:10:39.199Z,26.87
2019-04-27T04:15:54.387Z,33.77
2019-04-27T04:21:00.554Z,34.10
2019-04-27T04:26:22.314Z,37.37
2019-04-27T04:31:32.546Z,35.87
2019-04-27T04:36:34.110Z,29.60
2019-04-27T04:42:03.926Z,31.53
2019-04-27T04:47:55.227Z,27.47
2019-04-27T04:53:01.269Z,27.53
2019-04-27T04:58:06.359Z,26.07
2019-04-27T05:03:11.665Z,25.33
2019-04-27T05:08:18.926Z,27.27
2019-04-27T05:13:24.564Z,30.23
2019-04-27T05:18:31.400Z,28.80
2019-04-27T05:23:36.354Z,29.07
2019-04-27T05:28:41.748Z,25.30
2019-04-27T05:33:46.843Z,29.37
2019-04-27T05:38:51.973Z,37.37
2019-04-27T05:44:31.099Z,33.43
2019-04-27T05:49:44.467Z,34.50
2019-04-27T05:54:49.710Z,38.60
2019-04-27T05:59:55.111Z,38.53
2019-04-27T06:05:00.978Z,34.13
2019-04-27T06:10:06.513Z,33.27
2019-04-27T06:15:12.137Z,34.07
2019-04-27T06:20:18.850Z,30.97
2019-04-27T06:25:24.039Z,29.53
2019-04-27T06:30:29.488Z,31.37
2019-04-27T06:35:34.951Z,31.03
2019-04-27T06:40:40.487Z,32.73
2019-04-27T06:45:45.546Z,31.07
2019-04-27T06:51:02.682Z,32.80
2019-04-27T06:55:59.811Z,26.97
2019-04-27T07:01:05.436Z,27.23
2019-04-27T07:06:13.701Z,28.50
2019-04-27T07:11:19.691Z,30.07
2019-04-27T07:16:26.179Z,28.00
2019-04-27T07:21:31.616Z,31.03
2019-04-27T07:26:38.879Z,28.07
2019-04-27T07:31:43.665Z,26.57
2019-04-27T07:36:49.242Z,23.63
2019-04-27T07:41:55.209Z,22.77
2019-04-27T07:47:39.229Z,21.40
2019-04-27T07:52:44.443Z,22.53
2019-04-27T07:57:50.433Z,20.20
2019-04-27T08:02:55.899Z,23.70
2019-04-27T08:08:01.093Z,23.20
2019-04-27T08:13:06.528Z,23.07
2019-04-27T08:18:11.762Z,23.97
2019-04-27T08:23:17.041Z,24.40
2019-04-27T08:28:38.657Z,21.63
2019-04-27T08:33:52.045Z,20.60
2019-04-27T08:39:00.952Z,20.93
2019-04-27T08:44:09.797Z,22.20
2019-04-27T08:49:18.511Z,24.77
2019-04-27T08:54:42.535Z,23.53
2019-04-27T08:59:56.697Z,19.60
2019-04-27T09:05:02.397Z,20.87
2019-04-27T09:10:18.771Z,21.40
2019-04-27T09:15:39.463Z,21.40
2019-04-27T09:20:56.753Z,20.77
2019-04-27T09:26:01.952Z,20.73
2019-04-27T09:31:09.101Z,19.53
2019-04-27T09:36:16.530Z,20.77
2019-04-27T09:41:26.245Z,18.63
2019-04-27T09:46:32.198Z,18.47
2019-04-27T09:51:39.915Z,16.13
2019-04-27T09:56:53.109Z,19.90
2019-04-27T10:02:01.126Z,18.77
2019-04-27T10:07:07.823Z,18.32
2019-04-27T10:12:15.805Z,18.60
2019-04-27T10:17:31.467Z,17.93
2019-04-27T10:22:42.841Z,17.62
2019-04-27T10:39:31.759Z,16.95
2019-04-27T10:44:46.345Z,17.57
2019-04-27T10:50:00.819Z,17.25
2019-04-27T11:00:38.638Z,15.98
2019-04-27T11:06:09.699Z,16.77
2019-04-27T11:11:15.337Z,17.67
2019-04-27T11:16:27.638Z,17.00
2019-04-27T11:21:38.479Z,17.90
2019-04-27T11:32:59.306Z,14.58
2019-04-27T11:38:10.013Z,12.07
2019-04-27T11:43:16.158Z,11.68
2019-04-27T11:48:30.782Z,11.90
2019-04-27T11:53:36.726Z,13.03
2019-04-27T11:58:44.816Z,11.68
2019-04-27T12:03:55.631Z,11.80
2019-04-27T12:09:00.732Z,10.95
2019-04-27T12:14:09.475Z,11.12
2019-04-27T12:19:16.329Z,11.88
2019-04-27T12:24:35.588Z,10.90
2019-04-27T12:29:59.948Z,11.85
2019-04-27T12:35:06.765Z,10.53
2019-04-27T12:40:14.027Z,12.28
2019-04-27T12:45:21.207Z,12.85
2019-04-27T12:50:27.865Z,11.00
2019-04-27T12:55:52.804Z,10.83
2019-04-27T13:00:59.714Z,11.40
2019-04-27T13:06:10.476Z,11.90
2019-04-27T13:11:17.177Z,12.10
2019-04-27T13:16:24.617Z,12.40
2019-04-27T13:21:30.615Z,13.97
2019-04-27T13:26:38.094Z,11.47
2019-04-27T13:31:44.415Z,12.20
2019-04-27T13:36:49.599Z,11.23
2019-04-27T13:41:56.334Z,12.13
2019-04-27T13:47:21.008Z,11.63
2019-04-27T13:52:29.996Z,12.70
2019-04-27T13:57:44.024Z,12.27
2019-04-27T14:02:44.155Z,11.63
2019-04-27T14:07:51.296Z,12.28
2019-04-27T14:12:59.051Z,13.03
2019-04-27T14:18:05.726Z,15.25
2019-04-27T14:23:13.989Z,13.28
2019-04-27T14:28:43.526Z,10.73
2019-04-27T14:33:58.786Z,10.40
2019-04-27T14:39:18.492Z,11.10
2019-04-27T14:44:29.264Z,10.25
2019-04-27T14:49:36.959Z,11.03
2019-04-27T14:54:48.134Z,12.30
2019-04-27T14:59:54.147Z,11.73
2019-04-27T15:05:00.860Z,11.60
2019-04-27T15:10:08.461Z,12.20
2019-04-27T15:15:17.353Z,13.72
2019-04-27T15:20:32.828Z,11.12
2019-04-27T15:25:45.193Z,12.95
2019-04-27T15:31:22.376Z,11.40
2019-04-27T15:36:32.894Z,12.90
2019-04-27T15:41:48.513Z,14.03
2019-04-27T15:46:54.445Z,13.45
2019-04-27T15:52:00.149Z,13.37
2019-04-27T15:57:12.357Z,10.88
2019-04-27T16:02:15.562Z,11.43
2019-04-27T16:07:24.860Z,14.05
2019-04-27T16:12:28.821Z,11.17
2019-04-27T16:17:34.355Z,13.03
2019-04-27T16:22:41.018Z,11.43
2019-04-27T16:33:22.009Z,12.40
2019-04-27T16:38:47.989Z,15.20
2019-04-27T16:43:54.015Z,14.37
2019-04-27T16:48:59.889Z,13.97
2019-04-27T16:54:11.130Z,15.40
2019-04-27T16:59:38.661Z,14.47
2019-04-27T17:04:25.730Z,15.00
2019-04-27T17:09:31.221Z,14.97
2019-04-27T17:14:58.661Z,15.83
2019-04-27T17:20:12.938Z,18.93
2019-04-27T17:25:20.072Z,20.70
2019-04-27T17:30:30.966Z,19.90
2019-04-27T17:35:41.295Z,16.23
2019-04-27T17:40:45.699Z,16.33
2019-04-27T17:45:50.806Z,15.33
2019-04-27T17:51:02.563Z,12.63
2019-04-27T17:56:08.591Z,15.03
2019-04-27T18:01:19.088Z,18.63
2019-04-27T18:06:29.414Z,15.00
2019-04-27T18:11:37.304Z,15.50
2019-04-27T18:16:43.740Z,14.53
2019-04-27T18:22:01.157Z,13.17
2019-04-27T18:27:18.381Z,12.60
2019-04-27T18:32:27.738Z,13.07
2019-04-27T18:37:32.650Z,11.20
2019-04-27T18:42:39.009Z,12.60
2019-04-27T18:47:48.177Z,12.33
2019-04-27T18:52:58.764Z,11.90
2019-04-27T18:58:04.750Z,12.90
2019-04-27T19:03:12.795Z,14.07
2019-04-27T19:08:24.816Z,16.50
2019-04-27T19:13:56.227Z,13.17
2019-04-27T19:19:02.516Z,13.63
2019-04-27T19:24:09.188Z,13.57
2019-04-27T19:29:19.772Z,12.13
2019-04-27T19:34:25.663Z,13.80
2019-04-27T19:39:32.010Z,12.70
2019-04-27T19:44:38.921Z,14.13
2019-04-27T19:49:45.275Z,14.37
2019-04-27T19:54:51.252Z,15.60
2019-04-27T19:59:58.921Z,16.40
2019-04-27T20:05:06.947Z,17.70
2019-04-27T20:10:14.479Z,17.10
2019-04-27T20:15:21.431Z,15.87
2019-04-27T20:20:26.850Z,13.90
2019-04-27T20:25:32.284Z,18.03
2019-04-27T20:30:37.663Z,18.03
2019-04-27T20:35:45.204Z,19.90
2019-04-27T20:40:51.071Z,16.20
2019-04-27T20:45:58.057Z,13.87
2019-04-27T20:51:03.204Z,13.90
2019-04-27T20:56:12.415Z,17.13
2019-04-27T21:01:18.577Z,22.33
2019-04-27T21:06:43.177Z,17.80
2019-04-27T21:11:49.385Z,17.40
2019-04-27T21:16:54.756Z,17.67
2019-04-27T21:22:01.211Z,16.93
2019-04-27T21:27:16.809Z,18.40
2019-04-27T21:32:22.757Z,18.93
2019-04-27T21:37:27.869Z,19.17
2019-04-27T21:42:34.618Z,16.60
2019-04-27T21:47:41.342Z,13.10
2019-04-27T21:53:21.202Z,13.80
2019-04-27T21:58:28.777Z,20.53
2019-04-27T22:03:35.149Z,17.57
2019-04-27T22:14:26.208Z,15.87
2019-04-27T22:19:31.358Z,18.43
2019-04-27T22:24:42.793Z,21.20
2019-04-27T22:29:46.925Z,14.00
2019-04-27T22:34:52.049Z,16.50
2019-04-27T22:40:19.237Z,19.97
2019-04-27T22:45:31.194Z,17.23
2019-04-27T22:50:36.711Z,18.27
2019-04-27T22:56:01.422Z,15.83
2019-04-27T23:01:26.020Z,18.77
2019-04-27T23:06:32.769Z,15.57
2019-04-27T23:11:37.840Z,15.60
2019-04-27T23:16:49.526Z,15.20
2019-04-27T23:21:54.499Z,20.17
2019-04-27T23:27:03.461Z,20.77
2019-04-27T23:32:12.873Z,19.10
2019-04-27T23:37:18.247Z,18.83
2019-04-27T23:42:25.266Z,23.23
2019-04-27T23:47:30.791Z,22.57
2019-04-27T23:52:53.729Z,22.87
2019-04-27T23:57:59.095Z,19.93
